Time;durP1;ratioP1;P1;durP2;ratioP2;P2;SDS_P1;SDS_P2;PMS_P1;PMS_P2;Temp;Humidity;BMP_temperature;BMP_pressure;BME280_temperature;BME280_humidity;BME280_pressure;Samples;Min_cycle;Max_cycle;Signal;HPM_P1;HPM_P2
2022/02/06 00:00:33;;;;;;;8.50;7.42;;;;;;;8.54;53.27;101785.50;1749136;80;20994;-76
2022/02/06 00:03:01;;;;;;;9.00;7.37;;;;;;;8.63;53.03;101787.70;1768672;80;21014;-77
2022/02/06 00:05:28;;;;;;;8.20;6.90;;;;;;;8.71;52.81;101786.41;1754975;81;21030;-76
2022/02/06 00:07:55;;;;;;;8.83;6.92;;;;;;;8.78;52.48;101795.92;1753020;80;21037;-76
2022/02/06 00:10:22;;;;;;;10.20;7.53;;;;;;;8.82;52.23;101792.50;1760585;80;21011;-76
2022/02/06 00:12:49;;;;;;;8.05;6.60;;;;;;;8.88;52.00;101796.41;1759217;80;20995;-76
2022/02/06 00:15:16;;;;;;;10.25;6.92;;;;;;;8.91;51.83;101801.59;1757514;80;20995;-75
2022/02/06 00:17:42;;;;;;;6.80;5.85;;;;;;;8.93;51.55;101799.86;1754366;80;21035;-76
2022/02/06 00:20:10;;;;;;;9.30;7.22;;;;;;;8.95;51.35;101798.12;1754825;80;21049;-76
2022/02/06 00:22:45;;;;;;;8.48;6.65;;;;;;;8.95;51.15;101798.12;1748324;80;21003;-76
2022/02/06 00:25:22;;;;;;;8.65;6.70;;;;;;;8.96;51.01;101799.87;1771751;80;21045;-75
2022/02/06 00:28:00;;;;;;;9.30;6.67;;;;;;;8.94;50.90;101810.23;1752700;80;21050;-77
2022/02/06 00:30:28;;;;;;;8.38;7.47;;;;;;;8.91;50.84;101806.35;1753218;81;21054;-76
2022/02/06 00:32:54;;;;;;;8.50;7.12;;;;;;;8.88;50.90;101800.30;1758694;80;21038;-76
2022/02/06 00:35:27;;;;;;;8.03;7.15;;;;;;;8.84;50.95;101806.34;1760355;80;21546;-75
2022/02/06 00:38:04;;;;;;;8.38;7.00;;;;;;;8.80;51.04;101807.17;1757836;80;21498;-76
2022/02/06 00:43:00;;;;;;;9.55;7.00;;;;;;;8.75;51.15;101799.83;1682081;84;22195;-76
2022/02/06 00:45:27;;;;;;;8.50;6.78;;;;;;;8.74;51.18;101799.37;1679056;84;21116;-75
2022/02/06 00:47:54;;;;;;;8.68;7.12;;;;;;;8.74;51.18;101807.16;1677972;85;21108;-76
2022/02/06 00:50:20;;;;;;;10.38;7.67;;;;;;;8.72;51.22;101805.00;1676010;84;21071;-75
2022/02/06 00:55:18;;;;;;;11.18;7.67;;;;;;;8.73;51.09;101805.45;1632467;86;21034;-76
2022/02/06 00:57:45;;;;;;;11.30;7.08;;;;;;;8.73;51.03;101805.45;1610755;86;22849;-76
2022/02/06 01:00:12;;;;;;;9.33;6.67;;;;;;;8.73;50.98;101806.74;1604904;86;21166;-75
2022/02/06 01:02:39;;;;;;;8.65;6.80;;;;;;;8.74;50.86;101809.76;1618856;86;21071;-76
2022/02/06 01:05:06;;;;;;;11.10;7.10;;;;;;;8.73;50.77;101807.62;1628582;86;21540;-77
2022/02/06 01:07:34;;;;;;;11.30;7.65;;;;;;;8.71;50.79;101809.77;1625211;86;21107;-76
2022/02/06 01:10:02;;;;;;;8.00;6.53;;;;;;;8.69;50.68;101813.66;1635082;86;21477;-76
2022/02/06 01:12:31;;;;;;;8.63;6.67;;;;;;;8.67;50.66;101814.09;1631070;86;21062;-76
2022/02/06 01:15:08;;;;;;;8.08;7.03;;;;;;;8.63;50.69;101820.56;1626875;86;21748;-76
2022/02/06 01:20:06;;;;;;;8.15;6.08;;;;;;;8.53;50.74;101822.69;1628829;87;21188;-76
2022/02/06 01:22:32;;;;;;;7.22;6.50;;;;;;;8.50;50.78;101825.25;1625865;87;21105;-76
2022/02/06 01:25:08;;;;;;;6.95;6.20;;;;;;;8.47;50.73;101825.27;1615794;87;21082;-77
2022/02/06 01:27:38;;;;;;;7.05;6.35;;;;;;;8.45;50.78;101824.39;1614089;87;21062;-76
2022/02/06 01:30:11;;;;;;;8.33;6.20;;;;;;;8.42;50.78;101819.17;1635783;87;21038;-76
2022/02/06 01:32:39;;;;;;;8.23;6.95;;;;;;;8.40;50.82;101829.55;1636578;87;21205;-75
2022/02/06 01:35:07;;;;;;;8.53;6.80;;;;;;;8.38;50.87;101823.92;1630649;87;21594;-75
2022/02/06 01:37:39;;;;;;;9.85;7.17;;;;;;;8.37;50.86;101822.17;1638708;87;21074;-76
2022/02/06 01:40:06;;;;;;;8.10;6.75;;;;;;;8.36;50.92;101820.45;1637374;87;21027;-77
2022/02/06 02:01:47;;;;;;;8.70;6.95;;;;;;;8.18;50.92;101828.54;1611406;88;21065;-77
2022/02/06 02:04:12;;;;;;;7.50;6.33;;;;;;;8.13;51.03;101828.97;1643651;86;21028;-77
2022/02/06 02:11:49;;;;;;;7.53;6.28;;;;;;;8.01;51.27;101827.61;1646203;86;21098;-75
2022/02/06 02:17:22;;;;;;;10.38;6.60;;;;;;;7.97;51.38;101840.11;1667722;83;21063;-76
2022/02/06 02:33:20;;;;;;;8.45;7.08;;;;;;;7.87;51.64;101847.36;1710439;83;21054;-75
2022/02/06 02:48:30;;;;;;;8.93;6.40;;;;;;;7.81;51.45;101871.09;1657556;85;21205;-76
2022/02/06 02:51:02;;;;;;;9.38;7.12;;;;;;;7.81;51.43;101872.39;1660834;85;21028;-76
2022/02/06 02:53:35;;;;;;;9.83;7.08;;;;;;;7.80;51.36;101868.92;1617559;88;21090;-75
2022/02/06 02:58:44;;;;;;;8.78;6.78;;;;;;;7.79;51.36;101870.22;1616156;87;21587;-76
2022/02/06 03:01:05;;;;;;;9.83;7.53;;;;;;;7.78;51.26;101878.41;1620146;87;21622;-76
2022/02/06 03:05:55;;;;;;;8.08;6.70;;;;;;;7.74;51.21;101876.66;1564872;90;21056;-76
2022/02/06 03:08:22;;;;;;;9.38;7.25;;;;;;;7.72;51.14;101879.66;1528882;92;21593;-76
2022/02/06 03:10:54;;;;;;;9.00;6.70;;;;;;;7.68;51.15;101879.20;1512938;95;21566;-77
2022/02/06 03:13:24;;;;;;;8.75;6.50;;;;;;;7.66;51.14;101877.02;1559618;91;21136;-76
2022/02/06 03:18:29;;;;;;;8.23;6.80;;;;;;;7.63;51.27;101876.98;1568318;90;21127;-76
2022/02/06 03:20:54;;;;;;;8.83;6.85;;;;;;;7.62;51.21;101884.33;1574177;89;21128;-76
2022/02/06 03:23:21;;;;;;;9.03;6.50;;;;;;;7.61;51.20;101885.17;1581709;87;21154;-76
2022/02/06 03:28:16;;;;;;;7.45;6.60;;;;;;;7.62;51.14;101895.98;1607251;87;21081;-76
2022/02/06 03:30:42;;;;;;;8.68;6.70;;;;;;;7.62;51.10;101897.28;1617618;87;21121;-76
2022/02/06 03:33:10;;;;;;;7.47;6.33;;;;;;;7.62;51.07;101894.70;1614521;87;21053;-76
2022/02/06 03:35:36;;;;;;;9.68;6.30;;;;;;;7.63;51.02;101906.77;1582471;88;21105;-75
2022/02/06 03:38:03;;;;;;;7.72;6.40;;;;;;;7.63;51.01;101913.25;1604264;87;21101;-75
2022/02/06 03:40:36;;;;;;;8.48;6.40;;;;;;;7.64;50.93;101916.30;1617145;87;21212;-74
2022/02/06 03:45:36;;;;;;;7.83;6.12;;;;;;;7.63;50.84;101921.02;1606851;88;21623;-76
2022/02/06 03:48:09;;;;;;;10.28;7.00;;;;;;;7.61;50.81;101924.44;1611056;88;21081;-76
2022/02/06 03:50:33;;;;;;;7.75;6.47;;;;;;;7.59;50.79;101928.33;1601853;88;21560;-75
2022/02/06 03:52:53;;;;;;;7.28;6.58;;;;;;;7.55;50.79;101924.39;1594621;88;21093;-76
2022/02/06 03:55:20;;;;;;;8.40;6.58;;;;;;;7.50;50.93;101928.22;1610517;87;21104;-76
2022/02/06 03:57:47;;;;;;;11.22;6.72;;;;;;;7.47;51.00;101933.81;1606975;87;21183;-75
2022/02/06 04:00:15;;;;;;;12.07;7.55;;;;;;;7.42;51.10;101929.88;1591059;88;21056;-76
2022/02/06 04:02:42;;;;;;;8.43;7.10;;;;;;;7.41;51.19;101941.11;1644244;83;21038;-76
2022/02/06 04:05:09;;;;;;;8.18;7.10;;;;;;;7.39;51.25;101943.69;1683155;84;21105;-77
2022/02/06 04:07:36;;;;;;;9.28;7.10;;;;;;;7.38;51.21;101943.65;1678624;84;21511;-77
2022/02/06 04:10:03;;;;;;;10.35;7.12;;;;;;;7.35;51.18;101950.98;1672574;85;21144;-76
2022/02/06 04:12:31;;;;;;;10.23;7.05;;;;;;;7.33;51.19;101946.64;1672596;84;21104;-76
2022/02/06 04:15:03;;;;;;;8.63;7.28;;;;;;;7.32;51.25;101956.53;1623571;86;21118;-77
2022/02/06 04:17:30;;;;;;;11.15;7.30;;;;;;;7.31;51.26;101952.22;1613636;86;21032;-77
2022/02/06 04:19:57;;;;;;;11.00;7.17;;;;;;;7.29;51.29;101947.45;1634099;86;21161;-76
2022/02/06 04:22:25;;;;;;;10.75;6.87;;;;;;;7.29;51.24;101943.58;1623118;86;21150;-75
2022/02/06 04:24:52;;;;;;;8.68;7.03;;;;;;;7.27;51.24;101938.36;1680585;83;21082;-75
2022/02/06 04:27:18;;;;;;;8.00;6.87;;;;;;;7.28;51.17;101935.34;1673571;83;21032;-76
2022/02/06 04:29:48;;;;;;;10.72;7.03;;;;;;;7.30;51.11;101937.53;1686878;83;21018;-74
2022/02/06 04:32:14;;;;;;;8.00;6.37;;;;;;;7.30;50.99;101937.53;1740535;80;21020;-75
2022/02/06 04:34:41;;;;;;;9.45;7.03;;;;;;;7.27;50.77;101934.92;1768024;80;21050;-75
2022/02/06 04:52:52;;;;;;;8.30;6.40;;;;;;;6.78;51.51;101932.63;1751242;80;21566;-74
2022/02/06 05:30:03;;;;;;;9.63;6.58;;;;;;;6.97;50.86;101977.27;1696704;84;21109;-75
2022/02/06 05:32:37;;;;;;;9.43;7.10;;;;;;;6.96;50.84;101982.89;1681950;83;21049;-74
2022/02/06 05:35:06;;;;;;;8.60;7.20;;;;;;;6.97;50.85;101986.31;1699130;83;21058;-74
2022/02/06 05:37:33;;;;;;;8.45;6.75;;;;;;;6.98;50.82;101993.25;1676459;84;21557;-74
2022/02/06 05:39:59;;;;;;;8.03;6.22;;;;;;;6.98;50.79;101990.25;1683885;84;21573;-75
2022/02/06 05:42:26;;;;;;;7.97;6.72;;;;;;;7.00;50.87;102000.61;1694725;84;21066;-74
2022/02/06 05:44:56;;;;;;;7.92;5.95;;;;;;;7.03;50.73;102007.09;1688897;83;21026;-75
2022/02/06 05:47:26;;;;;;;8.05;6.40;;;;;;;7.03;50.79;102001.92;1680379;84;21061;-75
2022/02/06 05:49:53;;;;;;;9.23;7.08;;;;;;;7.03;50.69;102004.51;1683095;83;21022;-74
2022/02/06 05:52:20;;;;;;;9.15;6.67;;;;;;;7.03;50.71;102009.68;1696466;84;21579;-73
2022/02/06 05:54:47;;;;;;;8.65;7.37;;;;;;;7.03;50.70;102017.45;1676034;84;21030;-74
2022/02/06 05:57:13;;;;;;;8.73;6.22;;;;;;;7.03;50.69;102017.45;1690326;83;21574;-75
2022/02/06 05:59:40;;;;;;;11.22;6.90;;;;;;;7.03;50.74;102020.03;1696802;83;21104;-74
2022/02/06 06:02:07;;;;;;;8.15;6.35;;;;;;;7.06;50.69;102035.61;1696007;84;21023;-74
2022/02/06 06:04:33;;;;;;;8.63;6.37;;;;;;;7.05;50.66;102031.27;1714969;81;21077;-74
2022/02/06 06:07:03;;;;;;;11.88;7.05;;;;;;;7.07;50.58;102034.75;1745309;80;21039;-73
2022/02/06 06:09:30;;;;;;;9.90;7.22;;;;;;;7.09;50.63;102038.26;1759512;81;21554;-74
2022/02/06 06:11:56;;;;;;;8.68;6.75;;;;;;;7.11;50.63;102039.14;1769285;80;21514;-74
2022/02/06 06:14:28;;;;;;;7.83;6.58;;;;;;;7.17;50.85;102041.81;1756784;80;21050;-73
2022/02/06 06:16:51;;;;;;;8.43;6.47;;;;;;;7.28;50.71;102042.79;1762442;81;21023;-73
2022/02/06 06:19:19;;;;;;;9.78;6.12;;;;;;;7.43;50.58;102040.39;1752173;82;21418;-72
2022/02/06 06:21:53;;;;;;;7.15;5.90;;;;;;;7.63;50.45;102037.59;1753252;80;21034;-73
2022/02/06 06:24:18;;;;;;;9.43;7.03;;;;;;;7.85;49.91;102040.83;1774117;80;21014;-73
2022/02/06 06:26:44;;;;;;;8.35;6.67;;;;;;;8.05;49.28;102029.37;1772919;80;21021;-72
2022/02/06 06:29:10;;;;;;;15.10;6.92;;;;;;;8.21;48.74;102028.22;1764471;80;21058;-73
2022/02/06 06:31:36;;;;;;;7.45;6.15;;;;;;;8.34;48.34;102026.63;1763912;80;21017;-72
2022/02/06 06:34:03;;;;;;;7.35;5.72;;;;;;;8.42;48.10;102030.56;1748056;80;21049;-73
2022/02/06 06:36:32;;;;;;;7.45;5.90;;;;;;;8.48;47.79;102031.90;1767961;80;21033;-71
2022/02/06 06:38:58;;;;;;;7.87;5.92;;;;;;;8.48;47.76;102022.40;1758833;80;21015;-73
2022/02/06 06:41:24;;;;;;;6.55;5.45;;;;;;;8.54;47.56;102025.03;1760395;80;21037;-73
2022/02/06 06:43:51;;;;;;;6.45;5.83;;;;;;;8.62;47.33;102031.55;1752810;80;20980;-72
2022/02/06 06:46:17;;;;;;;7.67;5.92;;;;;;;8.69;47.27;102029.45;1761237;80;21601;-72
2022/02/06 06:48:44;;;;;;;7.05;5.65;;;;;;;8.80;47.33;102027.77;1751736;81;21565;-74
2022/02/06 06:51:11;;;;;;;8.35;5.37;;;;;;;8.94;47.09;102034.77;1756344;80;21533;-72
2022/02/06 06:53:41;;;;;;;7.33;5.42;;;;;;;9.08;46.81;102033.56;1748342;80;21888;-72
2022/02/06 06:56:14;;;;;;;6.95;5.33;;;;;;;9.24;46.38;102037.95;1759875;80;21081;-73
2022/02/06 06:58:40;;;;;;;7.60;5.55;;;;;;;9.36;45.98;102039.30;1757801;80;21033;-74
2022/02/06 07:03:32;;;;;;;8.85;7.15;;;;;;;9.42;45.55;102037.14;1763277;80;21878;-72
2022/02/06 07:05:59;;;;;;;9.33;6.83;;;;;;;9.37;45.55;102043.64;1757122;80;21027;-74
2022/02/06 07:08:26;;;;;;;10.23;6.92;;;;;;;9.30;45.54;102041.88;1754465;80;21593;-73
2022/02/06 07:10:52;;;;;;;12.58;6.85;;;;;;;9.21;45.65;102043.13;1774125;80;21558;-73
2022/02/06 07:15:50;;;;;;;7.85;5.75;;;;;;;9.02;45.95;102045.22;1658487;84;21490;-73
2022/02/06 07:18:16;;;;;;;7.78;5.78;;;;;;;8.93;46.10;102058.14;1665106;85;21526;-73
2022/02/06 07:20:42;;;;;;;8.40;5.25;;;;;;;8.84;46.18;102055.05;1656053;85;21091;-73
2022/02/06 07:23:10;;;;;;;6.95;5.40;;;;;;;8.79;46.45;102063.69;1670709;85;21507;-73
2022/02/06 07:25:40;;;;;;;5.92;4.92;;;;;;;8.74;46.92;102065.36;1663087;85;21042;-73
2022/02/06 07:28:15;;;;;;;5.87;4.95;;;;;;;8.75;47.09;102073.60;1662039;85;21062;-72
2022/02/06 07:30:37;;;;;;;6.85;5.35;;;;;;;8.75;47.21;102073.19;1653524;84;21087;-73
2022/02/06 07:33:03;;;;;;;5.50;4.90;;;;;;;8.80;47.25;102071.89;1663171;85;21042;-72
2022/02/06 07:35:30;;;;;;;6.75;5.20;;;;;;;8.82;47.28;102067.61;1668456;85;21026;-72
2022/02/06 07:37:58;;;;;;;6.45;4.78;;;;;;;8.85;47.18;102073.67;1664322;85;21050;-73
2022/02/06 07:40:27;;;;;;;7.50;5.12;;;;;;;8.86;47.07;102077.16;1678583;84;21594;-72
2022/02/06 07:42:54;;;;;;;6.12;5.17;;;;;;;8.86;47.00;102074.55;1659184;85;21649;-73
2022/02/06 07:45:26;;;;;;;7.33;5.47;;;;;;;8.86;46.98;102077.16;1665999;85;21034;-72
2022/02/06 07:47:54;;;;;;;6.03;5.00;;;;;;;8.82;46.99;102076.69;1675141;85;21081;-73
2022/02/06 07:50:20;;;;;;;7.92;5.45;;;;;;;8.80;47.16;102077.08;1671689;84;21533;-75
2022/02/06 07:52:48;;;;;;;7.17;5.05;;;;;;;8.78;47.14;102078.38;1665506;85;21065;-73
2022/02/06 07:55:15;;;;;;;8.18;5.58;;;;;;;8.75;47.08;102074.91;1623916;87;21110;-72
2022/02/06 07:57:41;;;;;;;7.42;5.50;;;;;;;8.75;47.06;102076.20;1650454;85;21469;-73
2022/02/06 08:00:10;;;;;;;7.05;5.87;;;;;;;8.73;47.07;102076.62;1649297;85;21534;-73
2022/02/06 08:02:41;;;;;;;8.43;5.17;;;;;;;8.75;47.25;102080.09;1659390;85;21067;-73
2022/02/06 08:05:08;;;;;;;6.85;4.85;;;;;;;8.77;47.38;102079.67;1644062;85;21018;-73
2022/02/06 08:07:35;;;;;;;7.60;5.22;;;;;;;8.82;47.40;102088.38;1666224;84;21542;-73
2022/02/06 08:10:02;;;;;;;6.12;4.87;;;;;;;8.87;47.27;102079.75;1660196;84;21698;-73
2022/02/06 08:12:33;;;;;;;7.50;5.33;;;;;;;8.89;46.97;102077.16;1717183;80;21061;-72
2022/02/06 08:15:03;;;;;;;7.33;5.08;;;;;;;8.93;46.85;102078.91;1756350;80;21010;-73
2022/02/06 08:17:39;;;;;;;8.53;5.83;;;;;;;8.97;46.95;102079.36;1754519;80;21062;-73
2022/02/06 08:20:14;;;;;;;4.85;4.15;;;;;;;9.01;46.92;102082.41;1757740;80;21327;-73
2022/02/06 08:22:41;;;;;;;6.03;4.50;;;;;;;9.03;46.71;102078.97;1772788;80;21054;-72
2022/02/06 08:25:08;;;;;;;5.95;4.80;;;;;;;9.06;46.63;102080.72;1770070;80;21014;-73
2022/02/06 08:27:36;;;;;;;6.58;4.53;;;;;;;9.08;46.46;102082.89;1758628;80;21035;-73
2022/02/06 08:30:04;;;;;;;8.48;4.90;;;;;;;9.09;46.43;102085.07;1754102;80;21013;-73
2022/02/06 08:32:33;;;;;;;5.05;4.22;;;;;;;9.11;46.37;102082.89;1754169;80;21042;-74
2022/02/06 08:34:59;;;;;;;5.47;4.35;;;;;;;9.13;46.61;102081.17;1751829;80;21029;-72
2022/02/06 08:37:25;;;;;;;7.17;4.83;;;;;;;9.17;46.36;102079.03;1753604;80;21046;-73
2022/02/06 08:39:53;;;;;;;6.67;4.53;;;;;;;9.18;46.45;102074.29;1758584;80;21037;-72
2022/02/06 08:42:19;;;;;;;6.70;4.70;;;;;;;9.23;46.42;102080.39;1757174;80;21511;-72
2022/02/06 08:44:47;;;;;;;5.97;4.75;;;;;;;9.29;46.49;102084.31;1749398;80;21054;-73
2022/02/06 08:47:17;;;;;;;6.45;4.78;;;;;;;9.34;46.39;102079.98;1752849;80;21057;-73
2022/02/06 08:49:44;;;;;;;5.40;4.70;;;;;;;9.40;46.53;102082.61;1778414;80;21517;-74
2022/02/06 08:52:11;;;;;;;4.97;4.12;;;;;;;9.47;46.40;102079.19;1755346;80;21553;-72
2022/02/06 08:54:39;;;;;;;10.38;5.17;;;;;;;9.54;46.28;102078.33;1773766;80;21034;-72
2022/02/06 08:57:23;;;;;;;7.75;4.72;;;;;;;9.59;45.99;102064.93;1775218;80;20990;-72
2022/02/06 08:59:48;;;;;;;6.72;4.95;;;;;;;9.63;45.89;102061.48;1762254;80;21039;-73
2022/02/06 09:02:14;;;;;;;4.70;4.10;;;;;;;9.69;45.96;102060.19;1758483;80;21062;-73
2022/02/06 09:04:41;;;;;;;14.55;4.67;;;;;;;9.75;45.73;102061.93;1754508;81;21074;-72
2022/02/06 09:07:10;;;;;;;6.25;4.00;;;;;;;9.80;45.57;102058.50;1761697;80;21046;-73
2022/02/06 09:09:40;;;;;;;5.55;4.37;;;;;;;9.85;45.35;102055.45;1757845;80;21490;-72
2022/02/06 09:12:07;;;;;;;7.72;4.03;;;;;;;9.89;44.56;102059.38;1769016;80;21104;-72
2022/02/06 09:14:34;;;;;;;5.85;3.60;;;;;;;9.90;44.32;102055.89;1767942;80;21061;-72
2022/02/06 09:17:01;;;;;;;4.15;3.72;;;;;;;9.93;43.84;102053.31;1764284;80;21570;-72
2022/02/06 09:19:27;;;;;;;6.28;3.65;;;;;;;9.96;44.10;102045.50;1753011;80;21157;-72
2022/02/06 09:21:55;;;;;;;4.35;3.58;;;;;;;10.01;44.06;102046.39;1752995;80;20991;-72
2022/02/06 09:24:21;;;;;;;6.65;4.55;;;;;;;10.07;44.11;102045.09;1766495;80;20998;-72
2022/02/06 09:26:49;;;;;;;5.45;3.80;;;;;;;10.15;44.01;102044.27;1759498;80;21022;-73
2022/02/06 09:29:16;;;;;;;7.92;3.85;;;;;;;10.22;43.75;102041.24;1751173;80;21073;-72
2022/02/06 09:31:43;;;;;;;5.67;3.55;;;;;;;10.29;43.16;102038.62;1759973;80;21045;-72
2022/02/06 09:36:35;;;;;;;4.87;3.05;;;;;;;10.39;42.20;102048.59;1780099;80;20959;-72
2022/02/06 09:39:03;;;;;;;7.03;3.42;;;;;;;10.43;42.09;102050.31;1756695;80;21073;-72
2022/02/06 09:41:29;;;;;;;3.58;2.92;;;;;;;10.48;41.76;102052.50;1748191;80;21539;-72
2022/02/06 09:43:56;;;;;;;5.87;3.30;;;;;;;10.50;41.31;102043.83;1756197;80;20983;-73
2022/02/06 09:46:22;;;;;;;3.42;2.85;;;;;;;10.55;41.36;102041.23;1749245;80;21494;-72
2022/02/06 09:48:50;;;;;;;4.05;3.20;;;;;;;10.59;41.43;102036.45;1768172;80;21522;-72
2022/02/06 09:51:17;;;;;;;6.95;3.85;;;;;;;10.65;41.40;102040.34;1764130;80;20986;-72
2022/02/06 09:53:44;;;;;;;5.25;2.90;;;;;;;10.71;41.89;102032.52;1755414;80;21073;-72
2022/02/06 09:56:12;;;;;;;5.55;3.33;;;;;;;10.77;41.54;102027.30;1757745;80;21097;-73
2022/02/06 10:01:16;;;;;;;3.72;2.83;;;;;;;10.88;41.20;102019.46;1740249;80;21065;-72
2022/02/06 10:03:46;;;;;;;5.40;2.80;;;;;;;10.93;41.30;102012.05;1762888;80;21053;-73
2022/02/06 10:06:18;;;;;;;3.98;2.85;;;;;;;10.98;40.73;102012.92;1756228;80;21072;-73
2022/02/06 10:08:44;;;;;;;4.92;2.50;;;;;;;11.03;39.94;102005.94;1708771;82;21015;-74
2022/02/06 10:11:14;;;;;;;2.87;2.25;;;;;;;11.08;39.67;102000.29;1721264;82;21032;-72
2022/02/06 10:13:42;;;;;;;4.67;2.25;;;;;;;11.13;39.32;101995.91;1690867;84;21066;-72
2022/02/06 10:16:14;;;;;;;4.37;2.05;;;;;;;11.16;39.01;101992.00;1651212;86;21047;-73
2022/02/06 10:18:41;;;;;;;4.47;2.15;;;;;;;11.19;38.74;101988.06;1615763;88;21087;-72
2022/02/06 10:21:10;;;;;;;4.47;2.42;;;;;;;11.25;38.80;101980.22;1633548;88;21147;-72
2022/02/06 10:23:46;;;;;;;3.20;2.10;;;;;;;11.30;38.91;101984.11;1624529;88;21058;-72
2022/02/06 10:26:44;;;;;;;3.95;2.33;;;;;;;11.36;38.95;101990.59;1614017;87;21105;-72
2022/02/06 10:29:24;;;;;;;3.85;2.35;;;;;;;11.41;38.03;101988.83;1624636;87;21079;-72
2022/02/06 10:31:39;;;;;;;3.35;2.02;;;;;;;11.38;36.98;101992.31;1678769;85;21106;-72
2022/02/06 10:34:06;;;;;;;4.12;1.87;;;;;;;11.29;37.06;101992.81;1617999;88;21094;-72
2022/02/06 10:36:36;;;;;;;4.90;2.45;;;;;;;11.18;37.84;101994.16;1583162;88;21110;-71
2022/02/06 10:39:05;;;;;;;7.80;2.50;;;;;;;11.15;38.26;101995.47;1631533;87;21027;-72
2022/02/06 10:41:32;;;;;;;5.70;2.95;;;;;;;11.12;38.37;101991.59;1626767;87;21055;-71
2022/02/06 10:44:09;;;;;;;4.25;2.58;;;;;;;11.12;38.05;101990.28;1622821;87;21094;-72
2022/02/06 10:46:55;;;;;;;2.70;2.10;;;;;;;11.17;37.72;101997.62;1630054;87;21099;-72
2022/02/06 10:49:21;;;;;;;2.33;1.80;;;;;;;11.24;37.38;101990.22;1552013;92;21635;-72
2022/02/06 10:52:04;;;;;;;4.12;2.17;;;;;;;11.33;37.59;101982.34;1555387;91;21202;-73
2022/02/06 10:54:34;;;;;;;3.77;1.90;;;;;;;11.42;37.32;101986.21;1572794;91;21067;-71
2022/02/06 10:57:12;;;;;;;2.20;2.00;;;;;;;11.52;37.18;101982.27;1552880;92;21133;-72
2022/02/06 10:59:53;;;;;;;2.80;2.00;;;;;;;11.59;37.24;101976.98;1475248;96;21204;-72
2022/02/06 11:02:47;;;;;;;3.52;2.20;;;;;;;11.67;37.33;101971.31;1502875;94;21588;-72
2022/02/06 11:08:00;;;;;;;3.62;1.70;;;;;;;11.82;36.07;101966.00;1494069;95;21147;-73
2022/02/06 11:10:31;;;;;;;7.10;2.33;;;;;;;11.88;35.74;101965.08;1511396;92;21092;-73
2022/02/06 11:13:02;;;;;;;2.05;1.55;;;;;;;11.92;35.40;101957.22;1549573;92;23222;-74
2022/02/06 11:15:37;;;;;;;2.67;1.50;;;;;;;11.97;35.38;101959.80;1543598;92;21086;-73
2022/02/06 11:20:41;;;;;;;2.30;1.65;;;;;;;12.05;35.19;101950.16;1531107;93;21115;-72
2022/02/06 11:23:07;;;;;;;2.65;1.57;;;;;;;12.08;35.24;101947.51;1516884;93;21100;-73
2022/02/06 11:25:34;;;;;;;3.62;1.70;;;;;;;12.11;34.92;101950.10;1525561;93;21639;-73
2022/02/06 11:28:04;;;;;;;2.72;1.47;;;;;;;12.13;34.99;101947.04;1537679;93;21045;-73
2022/02/06 11:30:30;;;;;;;2.40;1.60;;;;;;;12.18;35.05;101950.45;1561942;91;21139;-72
2022/02/06 11:32:57;;;;;;;2.37;2.05;;;;;;;12.22;34.84;101950.84;1547832;92;21046;-72
2022/02/06 11:35:26;;;;;;;2.10;1.90;;;;;;;12.24;34.49;101938.22;1555803;90;21134;-72
2022/02/06 11:43:43;;;;;;;2.55;1.50;;;;;;;12.30;34.21;101936.01;1555303;91;21091;-74
2022/02/06 11:44:04;;;;;;;;;;;;;;;12.34;34.40;101938.14;1563743;90;21114;-73
2022/02/06 11:46:45;;;;;;;3.12;2.02;;;;;;;12.41;34.52;101939.36;1620627;86;20115;-73
2022/02/06 11:49:15;;;;;;;4.30;2.52;;;;;;;12.46;34.34;101937.58;1613620;87;21068;-73
2022/02/06 11:51:57;;;;;;;4.47;3.22;;;;;;;12.49;33.92;101944.05;1562331;90;21109;-73
2022/02/06 11:54:27;;;;;;;2.27;1.82;;;;;;;12.51;33.39;101936.23;1565264;90;21047;-72
2022/02/06 11:57:23;;;;;;;2.17;1.98;;;;;;;12.52;33.48;101937.50;1566465;90;21161;-73
2022/02/06 12:00:06;;;;;;;2.10;1.52;;;;;;;12.52;33.28;101928.37;1556836;90;21170;-72
2022/02/06 12:02:41;;;;;;;2.85;1.82;;;;;;;12.54;33.42;101922.69;1460451;97;21103;-73
2022/02/06 12:05:26;;;;;;;2.42;1.72;;;;;;;12.57;33.37;101933.08;1454581;96;21174;-73
2022/02/06 12:07:58;;;;;;;2.42;1.70;;;;;;;12.60;32.96;101933.06;1445812;98;21702;-73
2022/02/06 12:10:39;;;;;;;5.15;3.00;;;;;;;12.63;33.18;101930.86;1444755;98;21124;-72
2022/02/06 12:13:27;;;;;;;2.60;2.10;;;;;;;12.66;33.34;101922.55;1443518;98;21117;-74
2022/02/06 12:16:03;;;;;;;2.90;2.17;;;;;;;12.72;33.51;101925.08;1441616;98;21666;-73
2022/02/06 12:18:39;;;;;;;2.90;1.95;;;;;;;12.76;33.37;101931.99;1442137;98;21168;-72
2022/02/06 12:21:20;;;;;;;2.45;1.92;;;;;;;12.78;32.92;101921.52;1440939;98;21149;-73
2022/02/06 12:23:55;;;;;;;2.42;2.08;;;;;;;12.76;32.88;101921.98;1445472;98;21596;-73
2022/02/06 12:26:31;;;;;;;1.90;1.70;;;;;;;12.77;32.68;101923.29;1448529;98;21129;-73
2022/02/06 12:29:19;;;;;;;6.10;2.58;;;;;;;12.77;33.15;101914.58;1449040;98;21173;-73
2022/02/06 12:31:57;;;;;;;7.03;2.15;;;;;;;12.77;33.22;101923.29;1431648;100;21170;-73
2022/02/06 12:37:33;;;;;;;2.30;1.90;;;;;;;12.78;33.39;101914.55;1363303;103;21658;-74
2022/02/06 12:40:08;;;;;;;2.60;2.27;;;;;;;12.81;33.08;101916.27;1358191;101;21208;-73
2022/02/06 12:42:47;;;;;;;1.92;1.75;;;;;;;12.81;33.17;101906.70;1400544;101;21120;-73
2022/02/06 12:45:21;;;;;;;3.47;2.67;;;;;;;12.81;33.49;101908.44;1387842;101;21202;-72
2022/02/06 12:47:50;;;;;;;4.72;2.98;;;;;;;12.79;33.39;101909.77;1402223;100;21647;-72
2022/02/06 12:50:21;;;;;;;5.55;3.70;;;;;;;12.78;33.46;101908.03;1436813;98;21104;-72
2022/02/06 12:52:48;;;;;;;4.67;3.60;;;;;;;12.80;33.28;101910.17;1412102;99;21741;-72
2022/02/06 12:55:16;;;;;;;6.03;3.67;;;;;;;12.81;33.46;101911.92;1382671;103;21688;-72
2022/02/06 12:57:46;;;;;;;5.17;3.08;;;;;;;12.83;35.63;101910.16;1402725;101;21319;-75
2022/02/06 13:00:45;;;;;;;4.30;2.92;;;;;;;12.80;37.39;101914.09;1405062;101;21136;-73
2022/02/06 13:03:22;;;;;;;6.65;3.37;;;;;;;12.72;38.59;101912.45;1404398;101;21673;-72
2022/02/06 13:05:52;;;;;;;4.12;3.27;;;;;;;12.56;39.82;101909.17;1391464;102;21157;-73
2022/02/06 13:08:19;;;;;;;4.97;3.40;;;;;;;12.37;40.66;101903.72;1389249;102;21129;-73
2022/02/06 13:11:05;;;;;;;3.72;3.37;;;;;;;12.22;41.46;101909.09;1386497;102;21200;-73
2022/02/06 13:16:16;;;;;;;6.28;4.35;;;;;;;11.95;42.43;101910.69;1319013;106;21200;-74
2022/02/06 13:18:59;;;;;;;4.47;3.20;;;;;;;11.88;42.97;101905.09;1321123;107;21252;-74
2022/02/06 13:26:30;;;;;;;5.70;3.87;;;;;;;11.83;44.11;101893.85;1301275;109;21299;-73
2022/02/06 13:34:04;;;;;;;7.95;4.12;;;;;;;11.81;44.07;101887.78;1280960;110;21699;-72
2022/02/06 13:39:02;;;;;;;4.45;3.47;;;;;;;11.76;43.70;101892.16;1309761;107;21181;-73
2022/02/06 13:41:31;;;;;;;5.87;4.53;;;;;;;11.72;43.54;101886.55;1294503;109;21648;-73
2022/02/06 13:43:56;;;;;;;4.30;3.80;;;;;;;11.69;43.48;101894.37;1304926;105;21172;-74
2022/02/06 13:46:28;;;;;;;5.12;3.98;;;;;;;11.65;43.19;101888.30;1381860;103;21264;-73
2022/02/06 13:48:55;;;;;;;6.40;4.20;;;;;;;11.61;43.07;101881.81;1378289;102;21104;-73
2022/02/06 13:51:33;;;;;;;7.80;4.90;;;;;;;11.57;43.08;101875.77;1381207;103;21630;-74
2022/02/06 13:54:03;;;;;;;6.12;4.62;;;;;;;11.54;42.71;101884.06;1346290;105;21120;-74
2022/02/06 13:56:31;;;;;;;9.25;5.87;;;;;;;11.51;42.31;101880.16;1349735;105;21209;-73
2022/02/06 13:59:01;;;;;;;7.72;5.05;;;;;;;11.50;42.32;101883.66;1352106;104;21162;-74
2022/02/06 14:01:47;;;;;;;7.90;5.65;;;;;;;11.48;42.92;101883.65;1356634;104;21786;-74
2022/02/06 14:04:31;;;;;;;8.75;5.12;;;;;;;11.45;43.11;101878.48;1398148;101;21710;-73
2022/02/06 14:07:19;;;;;;;9.55;6.40;;;;;;;11.41;43.07;101875.03;1374538;103;21269;-72
2022/02/06 14:09:57;;;;;;;7.83;5.17;;;;;;;11.39;43.17;101879.40;1375761;103;21124;-73
2022/02/06 14:12:17;;;;;;;5.33;4.03;;;;;;;11.35;43.22;101872.45;1377854;102;21175;-73
2022/02/06 14:15:01;;;;;;;5.62;3.80;;;;;;;11.33;43.20;101870.75;1370605;103;21230;-73
2022/02/06 14:17:35;;;;;;;4.25;3.20;;;;;;;11.30;43.60;101866.42;1371936;101;21155;-73
2022/02/06 14:20:13;;;;;;;6.55;4.40;;;;;;;11.25;44.01;101862.97;1330165;107;21241;-73
2022/02/06 14:22:49;;;;;;;6.90;3.77;;;;;;;11.17;44.51;101864.77;1325073;105;21142;-73